sensor_id;sensor_type;location;lat;lon;timestamp;temperature;humidity
15231;DHT22;32569;51.762;8.564;2023-04-24T00:00:53;12.40;99.90
15231;DHT22;32569;51.762;8.564;2023-04-24T00:03:22;12.30;99.90
15231;DHT22;32569;51.762;8.564;2023-04-24T00:05:48;12.20;99.90
15231;DHT22;32569;51.762;8.564;2023-04-24T00:08:16;12.30;99.90
15231;DHT22;32569;51.762;8.564;2023-04-24T00:10:43;12.10;99.90
15231;DHT22;32569;51.762;8.564;2023-04-24T00:13:10;12.10;99.90
15231;DHT22;32569;51.762;8.564;2023-04-24T00:15:36;12.10;99.90
15231;DHT22;32569;51.762;8.564;2023-04-24T00:18:03;12.00;99.90
15231;DHT22;32569;51.762;8.564;2023-04-24T00:20:30;12.00;99.90
15231;DHT22;32569;51.762;8.564;2023-04-24T00:22:57;11.90;99.90
15231;DHT22;32569;51.762;8.564;2023-04-24T00:25:25;11.90;99.90
15231;DHT22;32569;51.762;8.564;2023-04-24T00:27:52;11.80;99.90
15231;DHT22;32569;51.762;8.564;2023-04-24T00:30:19;11.80;99.90
15231;DHT22;32569;51.762;8.564;2023-04-24T00:32:46;11.80;99.90
15231;DHT22;32569;51.762;8.564;2023-04-24T00:35:12;11.80;99.90
15231;DHT22;32569;51.762;8.564;2023-04-24T00:37:39;11.80;99.90
15231;DHT22;32569;51.762;8.564;2023-04-24T00:40:07;11.70;99.90
15231;DHT22;32569;51.762;8.564;2023-04-24T00:42:35;11.70;99.90
15231;DHT22;32569;51.762;8.564;2023-04-24T00:45:02;11.70;99.90
15231;DHT22;32569;51.762;8.564;2023-04-24T00:47:30;11.60;99.90
15231;DHT22;32569;51.762;8.564;2023-04-24T00:49:58;11.60;99.90
15231;DHT22;32569;51.762;8.564;2023-04-24T00:52:26;11.60;99.90
15231;DHT22;32569;51.762;8.564;2023-04-24T00:54:53;11.50;99.90
15231;DHT22;32569;51.762;8.564;2023-04-24T00:57:20;11.60;99.90
15231;DHT22;32569;51.762;8.564;2023-04-24T00:59:50;11.40;99.90
15231;DHT22;32569;51.762;8.564;2023-04-24T01:02:17;11.50;99.90
15231;DHT22;32569;51.762;8.564;2023-04-24T01:04:45;11.40;99.90
15231;DHT22;32569;51.762;8.564;2023-04-24T01:07:11;11.40;99.90
15231;DHT22;32569;51.762;8.564;2023-04-24T01:09:40;11.30;99.90
15231;DHT22;32569;51.762;8.564;2023-04-24T01:12:07;11.30;99.90
15231;DHT22;32569;51.762;8.564;2023-04-24T01:14:34;11.30;99.90
15231;DHT22;32569;51.762;8.564;2023-04-24T01:17:02;11.30;99.90
15231;DHT22;32569;51.762;8.564;2023-04-24T01:19:29;11.40;99.90
15231;DHT22;32569;51.762;8.564;2023-04-24T01:22:01;11.40;99.90
15231;DHT22;32569;51.762;8.564;2023-04-24T01:24:30;11.40;99.90
15231;DHT22;32569;51.762;8.564;2023-04-24T01:26:56;11.40;99.90
15231;DHT22;32569;51.762;8.564;2023-04-24T01:29:23;11.40;99.90
15231;DHT22;32569;51.762;8.564;2023-04-24T01:31:50;11.50;99.90
15231;DHT22;32569;51.762;8.564;2023-04-24T01:34:23;11.50;99.90
15231;DHT22;32569;51.762;8.564;2023-04-24T01:36:50;11.50;99.90
15231;DHT22;32569;51.762;8.564;2023-04-24T01:39:16;11.50;99.90
15231;DHT22;32569;51.762;8.564;2023-04-24T01:41:45;11.50;99.90
15231;DHT22;32569;51.762;8.564;2023-04-24T01:44:11;11.50;99.90
15231;DHT22;32569;51.762;8.564;2023-04-24T01:46:38;11.50;99.90
15231;DHT22;32569;51.762;8.564;2023-04-24T01:49:05;11.50;99.90
15231;DHT22;32569;51.762;8.564;2023-04-24T01:51:31;11.50;99.90
15231;DHT22;32569;51.762;8.564;2023-04-24T01:53:58;11.60;99.90
15231;DHT22;32569;51.762;8.564;2023-04-24T01:56:25;11.60;99.90
15231;DHT22;32569;51.762;8.564;2023-04-24T01:58:56;11.60;99.90
15231;DHT22;32569;51.762;8.564;2023-04-24T02:01:23;11.70;99.90
15231;DHT22;32569;51.762;8.564;2023-04-24T02:03:53;11.70;99.90
15231;DHT22;32569;51.762;8.564;2023-04-24T02:06:20;11.70;99.90
15231;DHT22;32569;51.762;8.564;2023-04-24T02:08:47;11.70;99.90
15231;DHT22;32569;51.762;8.564;2023-04-24T02:11:14;11.70;99.90
15231;DHT22;32569;51.762;8.564;2023-04-24T02:13:40;11.70;99.90
15231;DHT22;32569;51.762;8.564;2023-04-24T02:16:08;11.70;99.90
15231;DHT22;32569;51.762;8.564;2023-04-24T02:18:35;11.80;99.90
15231;DHT22;32569;51.762;8.564;2023-04-24T02:21:02;11.80;99.90
15231;DHT22;32569;51.762;8.564;2023-04-24T02:23:28;11.70;99.90
15231;DHT22;32569;51.762;8.564;2023-04-24T02:25:55;11.60;99.90
15231;DHT22;32569;51.762;8.564;2023-04-24T02:28:22;11.50;99.90
15231;DHT22;32569;51.762;8.564;2023-04-24T02:30:48;11.40;99.90
15231;DHT22;32569;51.762;8.564;2023-04-24T02:33:20;11.40;99.90
15231;DHT22;32569;51.762;8.564;2023-04-24T02:35:47;11.40;99.90
15231;DHT22;32569;51.762;8.564;2023-04-24T02:38:13;11.40;99.90
15231;DHT22;32569;51.762;8.564;2023-04-24T02:40:48;11.40;99.90
15231;DHT22;32569;51.762;8.564;2023-04-24T02:43:14;11.40;99.90
15231;DHT22;32569;51.762;8.564;2023-04-24T02:45:43;11.40;99.90
15231;DHT22;32569;51.762;8.564;2023-04-24T02:48:10;11.40;99.90
15231;DHT22;32569;51.762;8.564;2023-04-24T02:50:38;11.40;99.90
15231;DHT22;32569;51.762;8.564;2023-04-24T02:53:04;11.40;99.90
15231;DHT22;32569;51.762;8.564;2023-04-24T02:55:31;11.40;99.90
15231;DHT22;32569;51.762;8.564;2023-04-24T02:57:58;11.40;99.90
15231;DHT22;32569;51.762;8.564;2023-04-24T03:00:25;11.30;99.90
15231;DHT22;32569;51.762;8.564;2023-04-24T03:02:51;11.20;99.90
15231;DHT22;32569;51.762;8.564;2023-04-24T03:05:18;11.30;99.90
15231;DHT22;32569;51.762;8.564;2023-04-24T03:07:49;11.30;99.90
15231;DHT22;32569;51.762;8.564;2023-04-24T03:10:18;11.30;99.90
15231;DHT22;32569;51.762;8.564;2023-04-24T03:12:44;11.30;99.90
15231;DHT22;32569;51.762;8.564;2023-04-24T03:15:11;11.30;99.90
15231;DHT22;32569;51.762;8.564;2023-04-24T03:17:38;11.30;99.90
15231;DHT22;32569;51.762;8.564;2023-04-24T03:20:05;11.30;99.90
15231;DHT22;32569;51.762;8.564;2023-04-24T03:22:33;11.30;99.90
15231;DHT22;32569;51.762;8.564;2023-04-24T03:25:01;11.30;99.90
15231;DHT22;32569;51.762;8.564;2023-04-24T03:27:31;11.30;99.90
15231;DHT22;32569;51.762;8.564;2023-04-24T03:29:58;11.30;99.90
15231;DHT22;32569;51.762;8.564;2023-04-24T03:32:25;11.40;99.90
15231;DHT22;32569;51.762;8.564;2023-04-24T03:34:51;11.40;99.90
15231;DHT22;32569;51.762;8.564;2023-04-24T03:37:18;11.40;99.90
15231;DHT22;32569;51.762;8.564;2023-04-24T03:39:45;11.50;99.90
15231;DHT22;32569;51.762;8.564;2023-04-24T03:42:13;11.40;99.90
15231;DHT22;32569;51.762;8.564;2023-04-24T03:44:39;11.50;99.90
15231;DHT22;32569;51.762;8.564;2023-04-24T03:47:06;11.50;99.90
15231;DHT22;32569;51.762;8.564;2023-04-24T03:49:32;11.50;99.90
15231;DHT22;32569;51.762;8.564;2023-04-24T03:51:59;11.60;99.90
15231;DHT22;32569;51.762;8.564;2023-04-24T03:54:26;11.60;99.90
15231;DHT22;32569;51.762;8.564;2023-04-24T03:56:53;11.60;99.90
15231;DHT22;32569;51.762;8.564;2023-04-24T03:59:21;11.60;99.90
15231;DHT22;32569;51.762;8.564;2023-04-24T04:01:48;11.70;99.90
15231;DHT22;32569;51.762;8.564;2023-04-24T04:04:14;11.70;99.90
15231;DHT22;32569;51.762;8.564;2023-04-24T04:06:41;11.60;99.90
15231;DHT22;32569;51.762;8.564;2023-04-24T04:09:08;11.80;99.90
15231;DHT22;32569;51.762;8.564;2023-04-24T04:11:34;11.60;99.90
15231;DHT22;32569;51.762;8.564;2023-04-24T04:14:01;11.60;99.90
15231;DHT22;32569;51.762;8.564;2023-04-24T04:16:32;11.60;99.90
15231;DHT22;32569;51.762;8.564;2023-04-24T04:18:59;11.60;99.90
15231;DHT22;32569;51.762;8.564;2023-04-24T04:21:26;11.60;99.90
15231;DHT22;32569;51.762;8.564;2023-04-24T04:23:53;11.50;99.90
15231;DHT22;32569;51.762;8.564;2023-04-24T04:26:19;11.50;99.90
15231;DHT22;32569;51.762;8.564;2023-04-24T04:28:46;11.40;99.90
15231;DHT22;32569;51.762;8.564;2023-04-24T04:31:14;11.40;99.90
15231;DHT22;32569;51.762;8.564;2023-04-24T04:33:42;11.40;99.90
15231;DHT22;32569;51.762;8.564;2023-04-24T04:36:08;11.40;99.90
15231;DHT22;32569;51.762;8.564;2023-04-24T04:38:35;11.40;99.90
15231;DHT22;32569;51.762;8.564;2023-04-24T04:41:02;11.40;99.90
15231;DHT22;32569;51.762;8.564;2023-04-24T04:43:29;11.40;99.90
15231;DHT22;32569;51.762;8.564;2023-04-24T04:45:57;11.40;99.90
15231;DHT22;32569;51.762;8.564;2023-04-24T04:48:26;11.50;99.90
15231;DHT22;32569;51.762;8.564;2023-04-24T04:50:53;11.50;99.90
15231;DHT22;32569;51.762;8.564;2023-04-24T04:53:20;11.50;99.90
15231;DHT22;32569;51.762;8.564;2023-04-24T04:55:47;11.50;99.90
15231;DHT22;32569;51.762;8.564;2023-04-24T04:58:14;11.40;99.90
15231;DHT22;32569;51.762;8.564;2023-04-24T05:00:40;11.40;99.90
15231;DHT22;32569;51.762;8.564;2023-04-24T05:03:07;11.30;99.90
15231;DHT22;32569;51.762;8.564;2023-04-24T05:05:34;11.10;99.90
15231;DHT22;32569;51.762;8.564;2023-04-24T05:08:02;11.10;99.90
15231;DHT22;32569;51.762;8.564;2023-04-24T05:10:29;10.90;99.90
15231;DHT22;32569;51.762;8.564;2023-04-24T05:12:56;10.90;99.90
15231;DHT22;32569;51.762;8.564;2023-04-24T05:15:22;10.90;99.90
15231;DHT22;32569;51.762;8.564;2023-04-24T05:17:49;10.90;99.90
15231;DHT22;32569;51.762;8.564;2023-04-24T05:20:16;10.90;99.90
15231;DHT22;32569;51.762;8.564;2023-04-24T05:22:43;10.90;99.90
15231;DHT22;32569;51.762;8.564;2023-04-24T05:25:11;10.90;99.90
15231;DHT22;32569;51.762;8.564;2023-04-24T05:27:38;10.90;99.90
15231;DHT22;32569;51.762;8.564;2023-04-24T05:30:06;10.90;99.90
15231;DHT22;32569;51.762;8.564;2023-04-24T05:32:33;11.00;99.90
15231;DHT22;32569;51.762;8.564;2023-04-24T05:34:59;11.00;99.90
15231;DHT22;32569;51.762;8.564;2023-04-24T05:37:26;11.10;99.90
15231;DHT22;32569;51.762;8.564;2023-04-24T05:39:53;11.10;99.90
15231;DHT22;32569;51.762;8.564;2023-04-24T05:42:21;11.10;99.90
15231;DHT22;32569;51.762;8.564;2023-04-24T05:44:48;11.10;99.90
15231;DHT22;32569;51.762;8.564;2023-04-24T05:47:14;11.00;99.90
15231;DHT22;32569;51.762;8.564;2023-04-24T05:49:41;11.10;99.90
15231;DHT22;32569;51.762;8.564;2023-04-24T05:52:08;11.40;99.90
15231;DHT22;32569;51.762;8.564;2023-04-24T05:54:35;11.60;99.60
15231;DHT22;32569;51.762;8.564;2023-04-24T05:57:01;12.00;99.00
15231;DHT22;32569;51.762;8.564;2023-04-24T05:59:35;12.10;98.90
15231;DHT22;32569;51.762;8.564;2023-04-24T06:02:01;12.50;98.40
15231;DHT22;32569;51.762;8.564;2023-04-24T06:04:28;12.50;98.30
15231;DHT22;32569;51.762;8.564;2023-04-24T06:06:55;12.50;98.40
15231;DHT22;32569;51.762;8.564;2023-04-24T06:09:22;12.40;98.50
15231;DHT22;32569;51.762;8.564;2023-04-24T06:11:49;12.20;98.50
15231;DHT22;32569;51.762;8.564;2023-04-24T06:14:18;12.10;98.60
15231;DHT22;32569;51.762;8.564;2023-04-24T06:16:46;11.90;99.00
15231;DHT22;32569;51.762;8.564;2023-04-24T06:19:12;11.80;99.20
15231;DHT22;32569;51.762;8.564;2023-04-24T06:21:39;11.80;99.20
15231;DHT22;32569;51.762;8.564;2023-04-24T06:24:06;11.80;99.30
15231;DHT22;32569;51.762;8.564;2023-04-24T06:26:32;11.70;99.30
15231;DHT22;32569;51.762;8.564;2023-04-24T06:28:59;11.80;99.20
15231;DHT22;32569;51.762;8.564;2023-04-24T06:31:26;11.70;99.10
15231;DHT22;32569;51.762;8.564;2023-04-24T06:33:54;11.70;99.10
15231;DHT22;32569;51.762;8.564;2023-04-24T06:36:20;11.70;98.70
15231;DHT22;32569;51.762;8.564;2023-04-24T06:38:47;11.50;99.10
15231;DHT22;32569;51.762;8.564;2023-04-24T06:41:14;11.50;99.20
15231;DHT22;32569;51.762;8.564;2023-04-24T06:43:40;11.40;99.20
15231;DHT22;32569;51.762;8.564;2023-04-24T06:46:07;11.40;99.30
15231;DHT22;32569;51.762;8.564;2023-04-24T06:48:34;11.50;99.00
15231;DHT22;32569;51.762;8.564;2023-04-24T06:51:02;11.50;99.10
15231;DHT22;32569;51.762;8.564;2023-04-24T06:53:29;11.50;99.00
15231;DHT22;32569;51.762;8.564;2023-04-24T06:55:55;11.50;98.90
15231;DHT22;32569;51.762;8.564;2023-04-24T06:58:22;11.50;98.50
15231;DHT22;32569;51.762;8.564;2023-04-24T07:00:49;11.50;98.30
15231;DHT22;32569;51.762;8.564;2023-04-24T07:03:15;11.40;98.60
15231;DHT22;32569;51.762;8.564;2023-04-24T07:05:42;11.40;98.80
15231;DHT22;32569;51.762;8.564;2023-04-24T07:08:10;11.40;98.50
15231;DHT22;32569;51.762;8.564;2023-04-24T07:10:37;11.50;98.40
15231;DHT22;32569;51.762;8.564;2023-04-24T07:13:04;11.50;98.40
15231;DHT22;32569;51.762;8.564;2023-04-24T07:15:32;11.60;98.40
15231;DHT22;32569;51.762;8.564;2023-04-24T07:17:59;11.60;98.30
15231;DHT22;32569;51.762;8.564;2023-04-24T07:20:26;11.70;98.40
15231;DHT22;32569;51.762;8.564;2023-04-24T07:22:52;11.80;98.20
15231;DHT22;32569;51.762;8.564;2023-04-24T07:25:21;11.80;97.70
15231;DHT22;32569;51.762;8.564;2023-04-24T07:27:48;11.80;98.10
15231;DHT22;32569;51.762;8.564;2023-04-24T07:30:15;11.90;98.00
15231;DHT22;32569;51.762;8.564;2023-04-24T07:32:41;11.90;98.00
15231;DHT22;32569;51.762;8.564;2023-04-24T07:35:09;12.00;98.40
15231;DHT22;32569;51.762;8.564;2023-04-24T07:37:36;12.00;97.70
15231;DHT22;32569;51.762;8.564;2023-04-24T07:40:03;12.00;97.80
15231;DHT22;32569;51.762;8.564;2023-04-24T07:42:31;12.10;97.60
15231;DHT22;32569;51.762;8.564;2023-04-24T07:44:59;12.20;97.90
15231;DHT22;32569;51.762;8.564;2023-04-24T07:47:26;12.20;97.90
15231;DHT22;32569;51.762;8.564;2023-04-24T07:49:53;12.10;97.50
15231;DHT22;32569;51.762;8.564;2023-04-24T07:52:19;12.10;97.80
15231;DHT22;32569;51.762;8.564;2023-04-24T07:54:46;12.10;97.50
15231;DHT22;32569;51.762;8.564;2023-04-24T07:57:13;12.10;97.30
15231;DHT22;32569;51.762;8.564;2023-04-24T07:59:41;11.80;97.70
15231;DHT22;32569;51.762;8.564;2023-04-24T08:02:07;11.90;97.80
15231;DHT22;32569;51.762;8.564;2023-04-24T08:04:35;11.80;97.80
15231;DHT22;32569;51.762;8.564;2023-04-24T08:07:01;11.80;97.80
15231;DHT22;32569;51.762;8.564;2023-04-24T08:09:28;11.80;98.10
15231;DHT22;32569;51.762;8.564;2023-04-24T08:11:55;11.70;98.10
15231;DHT22;32569;51.762;8.564;2023-04-24T08:14:22;11.70;98.00
15231;DHT22;32569;51.762;8.564;2023-04-24T08:16:49;11.70;98.00
15231;DHT22;32569;51.762;8.564;2023-04-24T08:19:16;11.70;98.00
15231;DHT22;32569;51.762;8.564;2023-04-24T08:21:43;11.70;97.70
15231;DHT22;32569;51.762;8.564;2023-04-24T08:24:09;11.70;98.20
15231;DHT22;32569;51.762;8.564;2023-04-24T08:26:36;11.70;97.90
15231;DHT22;32569;51.762;8.564;2023-04-24T08:29:03;11.60;97.90
15231;DHT22;32569;51.762;8.564;2023-04-24T08:31:29;11.70;98.00
15231;DHT22;32569;51.762;8.564;2023-04-24T08:33:57;11.60;98.00
15231;DHT22;32569;51.762;8.564;2023-04-24T08:36:25;11.70;98.10
15231;DHT22;32569;51.762;8.564;2023-04-24T08:38:52;11.80;98.10
15231;DHT22;32569;51.762;8.564;2023-04-24T08:41:18;11.70;98.40
15231;DHT22;32569;51.762;8.564;2023-04-24T08:43:47;11.80;98.70
15231;DHT22;32569;51.762;8.564;2023-04-24T08:46:15;11.90;98.50
15231;DHT22;32569;51.762;8.564;2023-04-24T08:48:42;12.00;98.90
15231;DHT22;32569;51.762;8.564;2023-04-24T08:51:11;12.10;98.20
15231;DHT22;32569;51.762;8.564;2023-04-24T08:53:38;12.00;98.10
15231;DHT22;32569;51.762;8.564;2023-04-24T08:56:05;12.00;97.80
15231;DHT22;32569;51.762;8.564;2023-04-24T08:58:33;12.00;98.50
15231;DHT22;32569;51.762;8.564;2023-04-24T09:01:00;12.00;99.10
15231;DHT22;32569;51.762;8.564;2023-04-24T09:03:28;12.00;98.50
15231;DHT22;32569;51.762;8.564;2023-04-24T09:05:55;12.10;98.50
15231;DHT22;32569;51.762;8.564;2023-04-24T09:08:25;11.90;98.70
15231;DHT22;32569;51.762;8.564;2023-04-24T09:10:52;11.90;98.50
15231;DHT22;32569;51.762;8.564;2023-04-24T09:13:22;12.00;98.40
15231;DHT22;32569;51.762;8.564;2023-04-24T09:15:49;12.10;98.20
15231;DHT22;32569;51.762;8.564;2023-04-24T09:18:17;12.30;97.40
15231;DHT22;32569;51.762;8.564;2023-04-24T09:20:58;12.30;97.20
15231;DHT22;32569;51.762;8.564;2023-04-24T09:23:27;12.30;97.40
15231;DHT22;32569;51.762;8.564;2023-04-24T09:25:55;12.30;97.20
15231;DHT22;32569;51.762;8.564;2023-04-24T09:28:26;12.40;97.00
15231;DHT22;32569;51.762;8.564;2023-04-24T09:31:07;12.60;96.90
15231;DHT22;32569;51.762;8.564;2023-04-24T09:33:34;12.60;96.70
15231;DHT22;32569;51.762;8.564;2023-04-24T09:36:01;12.70;96.30
15231;DHT22;32569;51.762;8.564;2023-04-24T09:38:37;12.60;96.30
15231;DHT22;32569;51.762;8.564;2023-04-24T09:41:05;12.70;96.90
15231;DHT22;32569;51.762;8.564;2023-04-24T09:43:32;12.70;97.30
15231;DHT22;32569;51.762;8.564;2023-04-24T09:46:04;12.70;97.20
15231;DHT22;32569;51.762;8.564;2023-04-24T09:48:32;12.70;96.90
15231;DHT22;32569;51.762;8.564;2023-04-24T09:51:00;12.90;96.80
15231;DHT22;32569;51.762;8.564;2023-04-24T09:53:29;12.90;96.50
15231;DHT22;32569;51.762;8.564;2023-04-24T09:56:02;12.80;96.00
15231;DHT22;32569;51.762;8.564;2023-04-24T09:58:29;12.80;96.20
15231;DHT22;32569;51.762;8.564;2023-04-24T10:00:56;12.90;96.10
15231;DHT22;32569;51.762;8.564;2023-04-24T10:03:24;12.90;96.20
15231;DHT22;32569;51.762;8.564;2023-04-24T10:05:52;12.80;96.20
15231;DHT22;32569;51.762;8.564;2023-04-24T10:08:19;12.90;96.80
15231;DHT22;32569;51.762;8.564;2023-04-24T10:10:46;13.00;96.40
15231;DHT22;32569;51.762;8.564;2023-04-24T10:13:15;12.90;96.50
15231;DHT22;32569;51.762;8.564;2023-04-24T10:15:42;12.80;96.90
15231;DHT22;32569;51.762;8.564;2023-04-24T10:18:09;12.60;96.70
15231;DHT22;32569;51.762;8.564;2023-04-24T10:20:38;12.40;97.20
15231;DHT22;32569;51.762;8.564;2023-04-24T10:23:05;12.30;97.50
15231;DHT22;32569;51.762;8.564;2023-04-24T10:25:34;12.30;97.30
15231;DHT22;32569;51.762;8.564;2023-04-24T10:28:01;12.20;97.10
15231;DHT22;32569;51.762;8.564;2023-04-24T10:30:30;12.00;97.40
15231;DHT22;32569;51.762;8.564;2023-04-24T10:33:00;12.00;97.70
15231;DHT22;32569;51.762;8.564;2023-04-24T10:35:30;12.10;97.70
15231;DHT22;32569;51.762;8.564;2023-04-24T10:38:00;12.20;97.30
15231;DHT22;32569;51.762;8.564;2023-04-24T10:40:31;12.00;97.20
15231;DHT22;32569;51.762;8.564;2023-04-24T10:42:59;11.80;96.80
15231;DHT22;32569;51.762;8.564;2023-04-24T10:45:26;11.60;97.50
15231;DHT22;32569;51.762;8.564;2023-04-24T10:47:57;11.50;97.80
15231;DHT22;32569;51.762;8.564;2023-04-24T10:50:26;11.40;98.20
15231;DHT22;32569;51.762;8.564;2023-04-24T10:52:53;11.20;98.30
15231;DHT22;32569;51.762;8.564;2023-04-24T10:55:41;11.00;98.90
15231;DHT22;32569;51.762;8.564;2023-04-24T10:58:08;10.90;99.10
15231;DHT22;32569;51.762;8.564;2023-04-24T11:00:36;10.90;99.30
15231;DHT22;32569;51.762;8.564;2023-04-24T11:03:06;10.90;99.30
15231;DHT22;32569;51.762;8.564;2023-04-24T11:05:53;10.90;99.90
15231;DHT22;32569;51.762;8.564;2023-04-24T11:08:26;10.90;99.90
15231;DHT22;32569;51.762;8.564;2023-04-24T11:10:59;10.90;99.90
15231;DHT22;32569;51.762;8.564;2023-04-24T11:13:31;10.90;99.90
15231;DHT22;32569;51.762;8.564;2023-04-24T11:16:17;11.00;99.90
15231;DHT22;32569;51.762;8.564;2023-04-24T11:18:50;11.20;99.90
15231;DHT22;32569;51.762;8.564;2023-04-24T11:21:19;11.10;99.90
15231;DHT22;32569;51.762;8.564;2023-04-24T11:23:46;11.10;99.90
15231;DHT22;32569;51.762;8.564;2023-04-24T11:26:18;11.00;99.90
15231;DHT22;32569;51.762;8.564;2023-04-24T11:28:46;10.70;99.90
15231;DHT22;32569;51.762;8.564;2023-04-24T11:31:38;10.60;99.90
15231;DHT22;32569;51.762;8.564;2023-04-24T11:34:09;10.70;99.90
15231;DHT22;32569;51.762;8.564;2023-04-24T11:36:36;10.60;99.90
15231;DHT22;32569;51.762;8.564;2023-04-24T11:39:03;10.50;99.90
15231;DHT22;32569;51.762;8.564;2023-04-24T11:41:29;10.50;99.90
15231;DHT22;32569;51.762;8.564;2023-04-24T11:43:57;10.60;99.90
15231;DHT22;32569;51.762;8.564;2023-04-24T11:46:27;10.60;99.90
15231;DHT22;32569;51.762;8.564;2023-04-24T11:48:54;10.60;99.90
15231;DHT22;32569;51.762;8.564;2023-04-24T11:51:22;10.50;99.90
15231;DHT22;32569;51.762;8.564;2023-04-24T11:53:49;10.50;99.90
15231;DHT22;32569;51.762;8.564;2023-04-24T11:56:17;10.40;99.90
15231;DHT22;32569;51.762;8.564;2023-04-24T11:58:45;10.30;99.90
15231;DHT22;32569;51.762;8.564;2023-04-24T12:01:12;10.30;99.90
15231;DHT22;32569;51.762;8.564;2023-04-24T12:03:39;9.70;99.90
15231;DHT22;32569;51.762;8.564;2023-04-24T12:06:09;9.60;99.90
15231;DHT22;32569;51.762;8.564;2023-04-24T12:08:37;9.50;99.90
15231;DHT22;32569;51.762;8.564;2023-04-24T12:11:06;9.40;99.90
15231;DHT22;32569;51.762;8.564;2023-04-24T12:13:33;9.40;99.90
15231;DHT22;32569;51.762;8.564;2023-04-24T12:16:01;9.30;99.90
15231;DHT22;32569;51.762;8.564;2023-04-24T12:18:28;9.30;99.90
15231;DHT22;32569;51.762;8.564;2023-04-24T12:20:54;9.20;99.90
15231;DHT22;32569;51.762;8.564;2023-04-24T12:23:33;9.30;99.90
15231;DHT22;32569;51.762;8.564;2023-04-24T12:26:04;9.30;99.90
15231;DHT22;32569;51.762;8.564;2023-04-24T12:28:35;9.30;99.90
15231;DHT22;32569;51.762;8.564;2023-04-24T12:31:02;9.30;99.90
15231;DHT22;32569;51.762;8.564;2023-04-24T12:33:33;9.40;99.90
15231;DHT22;32569;51.762;8.564;2023-04-24T12:36:00;9.60;99.90
15231;DHT22;32569;51.762;8.564;2023-04-24T12:38:28;9.60;99.90
15231;DHT22;32569;51.762;8.564;2023-04-24T12:41:03;9.50;99.90
15231;DHT22;32569;51.762;8.564;2023-04-24T12:43:30;9.60;99.90
15231;DHT22;32569;51.762;8.564;2023-04-24T12:45:57;9.60;99.90
15231;DHT22;32569;51.762;8.564;2023-04-24T12:48:25;9.70;99.90
15231;DHT22;32569;51.762;8.564;2023-04-24T12:50:52;9.50;99.90
15231;DHT22;32569;51.762;8.564;2023-04-24T12:53:18;9.50;99.90
15231;DHT22;32569;51.762;8.564;2023-04-24T12:55:45;9.50;99.90
15231;DHT22;32569;51.762;8.564;2023-04-24T12:58:19;9.30;99.90
15231;DHT22;32569;51.762;8.564;2023-04-24T13:00:46;9.30;99.90
15231;DHT22;32569;51.762;8.564;2023-04-24T13:03:13;9.50;99.90
15231;DHT22;32569;51.762;8.564;2023-04-24T13:05:40;9.40;99.90
15231;DHT22;32569;51.762;8.564;2023-04-24T13:08:07;9.60;99.90
15231;DHT22;32569;51.762;8.564;2023-04-24T13:10:34;9.60;99.90
15231;DHT22;32569;51.762;8.564;2023-04-24T13:13:01;9.60;99.90
15231;DHT22;32569;51.762;8.564;2023-04-24T13:15:29;9.70;99.90
15231;DHT22;32569;51.762;8.564;2023-04-24T13:17:55;9.80;99.90
15231;DHT22;32569;51.762;8.564;2023-04-24T13:20:22;9.80;99.90
15231;DHT22;32569;51.762;8.564;2023-04-24T13:22:49;9.80;99.90
15231;DHT22;32569;51.762;8.564;2023-04-24T13:25:15;9.70;99.90
15231;DHT22;32569;51.762;8.564;2023-04-24T13:27:43;9.80;99.90
15231;DHT22;32569;51.762;8.564;2023-04-24T13:30:11;9.80;99.90
15231;DHT22;32569;51.762;8.564;2023-04-24T13:32:39;9.80;99.90
15231;DHT22;32569;51.762;8.564;2023-04-24T13:35:06;9.80;99.90
15231;DHT22;32569;51.762;8.564;2023-04-24T13:37:32;9.80;99.90
15231;DHT22;32569;51.762;8.564;2023-04-24T13:39:59;9.80;99.90
15231;DHT22;32569;51.762;8.564;2023-04-24T13:42:25;9.70;99.90
15231;DHT22;32569;51.762;8.564;2023-04-24T13:44:52;9.60;99.90
15231;DHT22;32569;51.762;8.564;2023-04-24T13:47:19;9.80;99.90
15231;DHT22;32569;51.762;8.564;2023-04-24T13:49:47;9.90;99.90
15231;DHT22;32569;51.762;8.564;2023-04-24T13:52:14;10.00;99.90
15231;DHT22;32569;51.762;8.564;2023-04-24T13:54:41;10.10;99.90
15231;DHT22;32569;51.762;8.564;2023-04-24T13:57:07;10.30;99.90
15231;DHT22;32569;51.762;8.564;2023-04-24T13:59:34;10.30;99.90
15231;DHT22;32569;51.762;8.564;2023-04-24T14:02:01;10.20;99.90
15231;DHT22;32569;51.762;8.564;2023-04-24T14:04:27;10.20;99.90
15231;DHT22;32569;51.762;8.564;2023-04-24T14:06:55;10.00;99.90
15231;DHT22;32569;51.762;8.564;2023-04-24T14:09:22;10.00;99.90
15231;DHT22;32569;51.762;8.564;2023-04-24T14:11:52;9.90;99.90
15231;DHT22;32569;51.762;8.564;2023-04-24T14:14:18;10.00;99.90
15231;DHT22;32569;51.762;8.564;2023-04-24T14:16:45;10.00;99.90
15231;DHT22;32569;51.762;8.564;2023-04-24T14:19:12;9.90;99.90
15231;DHT22;32569;51.762;8.564;2023-04-24T14:21:38;9.90;99.90
15231;DHT22;32569;51.762;8.564;2023-04-24T14:24:07;9.90;99.90
15231;DHT22;32569;51.762;8.564;2023-04-24T14:26:34;9.80;99.90
15231;DHT22;32569;51.762;8.564;2023-04-24T14:29:01;9.80;99.90
15231;DHT22;32569;51.762;8.564;2023-04-24T14:31:28;9.80;99.90
15231;DHT22;32569;51.762;8.564;2023-04-24T14:34:03;10.00;99.90
15231;DHT22;32569;51.762;8.564;2023-04-24T14:36:30;10.10;99.90
15231;DHT22;32569;51.762;8.564;2023-04-24T14:38:57;10.20;99.90
15231;DHT22;32569;51.762;8.564;2023-04-24T14:41:24;10.20;99.90
15231;DHT22;32569;51.762;8.564;2023-04-24T14:43:51;10.20;99.90
15231;DHT22;32569;51.762;8.564;2023-04-24T14:46:18;10.10;99.90
15231;DHT22;32569;51.762;8.564;2023-04-24T14:48:44;10.10;99.90
15231;DHT22;32569;51.762;8.564;2023-04-24T14:51:11;10.00;99.90
15231;DHT22;32569;51.762;8.564;2023-04-24T14:53:38;10.00;99.90
15231;DHT22;32569;51.762;8.564;2023-04-24T14:56:05;10.00;99.90
15231;DHT22;32569;51.762;8.564;2023-04-24T14:58:33;9.90;99.90
15231;DHT22;32569;51.762;8.564;2023-04-24T15:00:59;9.90;99.90
15231;DHT22;32569;51.762;8.564;2023-04-24T15:03:26;10.00;99.90
15231;DHT22;32569;51.762;8.564;2023-04-24T15:05:53;10.00;99.90
15231;DHT22;32569;51.762;8.564;2023-04-24T15:08:19;10.10;99.90
15231;DHT22;32569;51.762;8.564;2023-04-24T15:10:46;10.10;99.90
15231;DHT22;32569;51.762;8.564;2023-04-24T15:13:13;9.90;99.90
15231;DHT22;32569;51.762;8.564;2023-04-24T15:15:41;9.90;99.90
15231;DHT22;32569;51.762;8.564;2023-04-24T15:18:08;9.90;99.90
15231;DHT22;32569;51.762;8.564;2023-04-24T15:20:37;9.80;99.90
15231;DHT22;32569;51.762;8.564;2023-04-24T15:23:04;9.80;99.90
15231;DHT22;32569;51.762;8.564;2023-04-24T15:25:31;9.80;99.90
15231;DHT22;32569;51.762;8.564;2023-04-24T15:28:00;9.90;99.90
15231;DHT22;32569;51.762;8.564;2023-04-24T15:30:27;10.00;99.90
15231;DHT22;32569;51.762;8.564;2023-04-24T15:32:55;10.00;99.90
15231;DHT22;32569;51.762;8.564;2023-04-24T15:35:22;10.00;99.90